Time;durP1;ratioP1;P1;durP2;ratioP2;P2;SDS_P1;SDS_P2;PMS_P1;PMS_P2;Temp;Humidity;BMP_temperature;BMP_pressure;BME280_temperature;BME280_humidity;BME280_pressure;Samples;Min_cycle;Max_cycle;Signal;HPM_P1;HPM_P2
2023/11/10 00:01:51;;;;;;;76.13;68.63;;;;;;;3.83;100.00;95050.44;5079525;28;20147;-64
2023/11/10 00:04:19;;;;;;;77.80;70.20;;;;;;;3.87;100.00;95045.84;5080287;28;20630;-65
2023/11/10 00:06:45;;;;;;;58.40;52.13;;;;;;;3.86;100.00;95050.22;5084903;28;20230;-64
2023/11/10 00:09:10;;;;;;;52.47;46.88;;;;;;;3.83;100.00;95054.81;5090839;28;20021;-64
2023/11/10 00:11:38;;;;;;;51.60;46.28;;;;;;;3.85;100.00;95042.50;5082465;28;20051;-65
2023/11/10 00:14:04;;;;;;;43.42;38.83;;;;;;;4.03;100.00;95036.84;5089965;28;20020;-65
2023/11/10 00:16:29;;;;;;;45.45;41.15;;;;;;;3.94;100.00;95041.81;5083115;28;20031;-65
2023/11/10 00:18:56;;;;;;;61.95;55.35;;;;;;;3.92;100.00;95041.09;5065211;28;20020;-65
2023/11/10 00:21:27;;;;;;;65.90;58.63;;;;;;;3.93;100.00;95037.56;5087238;28;20024;-64
2023/11/10 00:23:52;;;;;;;59.08;52.72;;;;;;;3.95;100.00;95027.84;5082000;28;20038;-64
2023/11/10 00:26:21;;;;;;;51.17;45.65;;;;;;;3.96;100.00;95028.66;5089141;28;20349;-65
2023/11/10 00:28:46;;;;;;;57.22;51.25;;;;;;;3.99;100.00;95033.66;5087796;28;20023;-65
2023/11/10 00:31:11;;;;;;;50.60;39.53;;;;;;;4.07;100.00;95025.22;5084606;28;20032;-65
2023/11/10 00:33:37;;;;;;;49.67;39.10;;;;;;;4.03;100.00;95008.19;5072928;28;20012;-65
2023/11/10 00:36:03;;;;;;;39.15;31.90;;;;;;;4.01;100.00;95014.34;5079859;28;20096;-65
2023/11/10 00:38:29;;;;;;;49.05;43.58;;;;;;;4.01;100.00;95011.75;5086490;28;20461;-65
2023/11/10 00:40:54;;;;;;;35.67;26.52;;;;;;;4.06;100.00;95007.94;5081536;28;20016;-65
2023/11/10 00:43:20;;;;;;;36.65;33.03;;;;;;;4.07;100.00;95015.66;5084658;28;20031;-65
2023/11/10 00:45:45;;;;;;;38.22;34.30;;;;;;;4.08;100.00;95035.53;5091443;28;20020;-65
2023/11/10 00:48:10;;;;;;;50.55;45.15;;;;;;;4.18;100.00;95051.31;5086497;28;20024;-65
2023/11/10 00:50:36;;;;;;;45.47;40.53;;;;;;;4.24;100.00;95063.03;5083545;28;20023;-64
2023/11/10 00:53:01;;;;;;;39.55;35.55;;;;;;;4.13;100.00;95067.28;5079053;28;20032;-64
2023/11/10 00:55:27;;;;;;;34.63;31.23;;;;;;;4.15;100.00;95061.97;5090494;28;20023;-64
2023/11/10 00:57:53;;;;;;;37.40;33.55;;;;;;;4.16;100.00;95054.00;5088358;28;20411;-64
2023/11/10 01:00:18;;;;;;;36.60;33.00;;;;;;;4.18;100.00;95050.47;5084424;28;20024;-64
2023/11/10 01:02:44;;;;;;;35.50;31.73;;;;;;;4.21;100.00;95034.63;5085589;28;20035;-64
2023/11/10 01:05:12;;;;;;;32.50;29.35;;;;;;;4.21;100.00;95030.22;5086263;28;20027;-64
2023/11/10 01:07:38;;;;;;;25.23;23.02;;;;;;;4.32;100.00;95010.31;5082436;28;20040;-64
2023/11/10 01:10:04;;;;;;;24.25;16.58;;;;;;;4.22;100.00;95013.63;5081700;28;20051;-63
2023/11/10 01:12:30;;;;;;;27.58;25.15;;;;;;;4.20;100.00;95009.47;5082676;28;20029;-64
2023/11/10 01:14:55;;;;;;;27.65;24.95;;;;;;;4.18;100.00;95001.78;5079910;28;20103;-64
2023/11/10 01:17:21;;;;;;;27.17;24.58;;;;;;;4.18;100.00;95014.81;5082203;28;20485;-64
2023/11/10 01:19:46;;;;;;;26.85;24.45;;;;;;;4.20;100.00;95014.69;5087014;28;20012;-64
2023/11/10 01:22:12;;;;;;;27.35;24.90;;;;;;;4.21;100.00;95017.19;5091654;28;20016;-64
2023/11/10 01:24:38;;;;;;;26.08;23.52;;;;;;;4.22;100.00;95012.81;5084517;28;20031;-64
2023/11/10 01:27:04;;;;;;;27.25;24.33;;;;;;;4.25;100.00;95016.00;5083039;28;20035;-64
2023/11/10 01:29:29;;;;;;;26.70;24.38;;;;;;;4.24;100.00;95003.91;5087445;28;20777;-64
2023/11/10 01:31:54;;;;;;;19.27;17.27;;;;;;;4.28;100.00;94994.91;5080207;28;20024;-64
2023/11/10 01:34:20;;;;;;;23.63;21.45;;;;;;;4.37;100.00;95002.97;5086775;28;20101;-63
2023/11/10 01:36:45;;;;;;;25.20;22.90;;;;;;;4.34;100.00;94998.00;5081370;28;20016;-65
2023/11/10 01:39:11;;;;;;;16.95;15.27;;;;;;;4.34;100.00;94987.56;5078758;28;20123;-64
2023/11/10 01:41:38;;;;;;;17.35;15.70;;;;;;;4.35;100.00;94981.41;5083433;28;20028;-64
2023/11/10 01:44:03;;;;;;;17.73;15.93;;;;;;;4.36;100.00;94985.66;5080724;28;20017;-64
2023/11/10 01:46:43;;;;;;;17.60;15.77;;;;;;;4.38;100.00;94979.38;5082420;28;20488;-64
2023/11/10 01:49:11;;;;;;;18.52;16.58;;;;;;;4.40;100.00;94967.03;5081547;28;20032;-64
2023/11/10 01:51:38;;;;;;;23.92;21.88;;;;;;;4.40;100.00;94964.44;5081793;28;20016;-64
2023/11/10 01:54:05;;;;;;;22.05;20.05;;;;;;;4.41;100.00;94968.69;5084098;28;20016;-64
2023/11/10 01:56:32;;;;;;;16.10;14.57;;;;;;;4.43;100.00;94964.22;5081320;28;20024;-64
2023/11/10 01:59:00;;;;;;;15.88;14.43;;;;;;;4.39;100.00;94956.75;5096198;28;20024;-64
2023/11/10 02:01:25;;;;;;;15.85;14.25;;;;;;;4.53;100.00;94960.88;5084066;28;20028;-64
2023/11/10 02:03:52;;;;;;;14.75;13.25;;;;;;;4.48;100.00;94971.66;5080225;28;20528;-64
2023/11/10 02:06:17;;;;;;;15.32;13.90;;;;;;;4.48;100.00;94965.63;5083363;28;20111;-64
2023/11/10 02:08:44;;;;;;;20.48;15.90;;;;;;;4.50;100.00;94964.53;5081943;28;20051;-64
2023/11/10 02:11:09;;;;;;;17.10;15.40;;;;;;;4.48;100.00;94971.66;5081258;28;20585;-64
2023/11/10 02:13:34;;;;;;;24.20;22.00;;;;;;;4.45;100.00;94958.88;5089373;28;20553;-64
2023/11/10 02:16:00;;;;;;;25.73;23.50;;;;;;;4.44;100.00;94967.63;5085129;28;20484;-64
2023/11/10 02:18:25;;;;;;;27.52;24.92;;;;;;;4.51;100.00;94968.78;5084301;28;20174;-64
2023/11/10 02:20:51;;;;;;;19.05;17.15;;;;;;;4.51;100.00;94960.97;5087682;28;20016;-64
2023/11/10 02:23:17;;;;;;;19.55;17.50;;;;;;;4.56;100.00;94953.63;5086806;28;20334;-64
2023/11/10 02:25:42;;;;;;;18.88;17.15;;;;;;;4.54;100.00;94947.72;5079270;28;20035;-64
2023/11/10 02:28:08;;;;;;;21.20;18.90;;;;;;;4.53;100.00;94938.25;5078729;28;20017;-64
2023/11/10 02:30:33;;;;;;;21.33;19.05;;;;;;;4.39;100.00;94935.91;5092417;28;20020;-64
2023/11/10 02:32:59;;;;;;;20.52;18.48;;;;;;;4.32;100.00;94943.38;5085030;28;20044;-64
2023/11/10 02:35:24;;;;;;;18.80;17.05;;;;;;;4.27;100.00;94942.91;5088713;28;20078;-64
2023/11/10 02:37:49;;;;;;;19.83;17.80;;;;;;;4.26;100.00;94941.25;5083754;28;20024;-64
2023/11/10 02:40:15;;;;;;;23.90;21.88;;;;;;;4.28;100.00;94948.00;5083651;28;20047;-64
2023/11/10 02:42:40;;;;;;;15.30;13.77;;;;;;;4.32;100.00;94935.56;5084466;28;20568;-64
2023/11/10 02:45:06;;;;;;;17.58;15.88;;;;;;;4.36;100.00;94925.72;5088859;28;20075;-64
2023/11/10 02:47:32;;;;;;;14.82;13.23;;;;;;;4.37;100.00;94922.16;5083395;28;20031;-64
2023/11/10 02:49:57;;;;;;;15.98;14.48;;;;;;;4.36;100.00;94928.34;5083758;28;20016;-64
2023/11/10 02:52:23;;;;;;;14.45;13.05;;;;;;;4.35;100.00;94937.91;5081733;28;20019;-64
2023/11/10 02:54:48;;;;;;;13.80;12.50;;;;;;;4.41;100.00;94926.19;5081933;28;20021;-63
2023/11/10 02:57:13;;;;;;;13.50;12.30;;;;;;;4.43;100.00;94926.88;5090288;28;20067;-64
2023/11/10 02:59:39;;;;;;;13.30;11.68;;;;;;;4.49;100.00;94925.56;5091761;28;20026;-64
2023/11/10 03:02:05;;;;;;;30.08;27.02;;;;;;;4.53;100.00;94911.34;5085948;28;20051;-64
2023/11/10 03:04:30;;;;;;;34.25;30.75;;;;;;;4.55;100.00;94907.66;5088795;28;20081;-64
2023/11/10 03:06:57;;;;;;;33.55;30.27;;;;;;;4.57;100.00;94907.53;5095160;28;20023;-64
2023/11/10 03:09:23;;;;;;;30.73;27.50;;;;;;;4.59;100.00;94910.81;5088399;28;20031;-64
2023/11/10 03:11:49;;;;;;;32.45;29.25;;;;;;;4.59;100.00;94906.47;5083262;28;20105;-64
2023/11/10 03:14:14;;;;;;;30.55;27.65;;;;;;;4.62;100.00;94896.72;5089749;28;20028;-64
2023/11/10 03:16:42;;;;;;;29.48;26.70;;;;;;;4.63;100.00;94883.53;5085811;28;20020;-64
2023/11/10 03:19:08;;;;;;;21.27;19.25;;;;;;;4.62;100.00;94874.06;5090843;28;20080;-64
2023/11/10 03:21:33;;;;;;;20.98;18.98;;;;;;;4.67;100.00;94855.47;5095977;28;20032;-64
2023/11/10 03:23:59;;;;;;;19.42;17.83;;;;;;;4.68;100.00;94855.34;5085841;28;20028;-64
2023/11/10 03:26:24;;;;;;;23.65;21.55;;;;;;;4.68;100.00;94862.31;5086781;28;20107;-64
2023/11/10 03:28:49;;;;;;;17.95;16.48;;;;;;;4.68;100.00;94857.09;5087851;28;20561;-64
2023/11/10 03:31:16;;;;;;;12.63;11.52;;;;;;;4.64;100.00;94855.72;5086221;28;20016;-64
2023/11/10 03:33:42;;;;;;;13.05;11.82;;;;;;;4.65;100.00;94849.53;5086003;28;20020;-64
2023/11/10 03:36:08;;;;;;;12.20;11.15;;;;;;;4.65;100.00;94850.38;5091140;28;20024;-64
2023/11/10 03:38:33;;;;;;;12.98;11.73;;;;;;;4.68;100.00;94846.69;5084685;28;20091;-64
2023/11/10 03:40:59;;;;;;;13.77;12.45;;;;;;;4.68;100.00;94850.13;5087668;28;20437;-64
2023/11/10 03:43:28;;;;;;;13.73;12.40;;;;;;;4.69;100.00;94853.53;5098094;28;20032;-64
2023/11/10 03:45:55;;;;;;;18.20;16.60;;;;;;;4.72;100.00;94850.69;5084222;28;20021;-64
2023/11/10 03:48:22;;;;;;;16.52;15.23;;;;;;;4.85;100.00;94833.06;5084668;28;20020;-64
2023/11/10 03:50:47;;;;;;;9.82;7.45;;;;;;;5.27;100.00;94797.44;5080574;28;20012;-64
2023/11/10 03:53:13;;;;;;;4.80;4.40;;;;;;;5.40;100.00;94786.78;5086709;28;20062;-64
2023/11/10 03:55:38;;;;;;;4.43;4.03;;;;;;;5.47;100.00;94800.13;5085822;28;20521;-64
2023/11/10 03:58:03;;;;;;;4.20;3.88;;;;;;;5.48;100.00;94797.38;5091976;28;20444;-64
2023/11/10 04:00:29;;;;;;;6.20;5.63;;;;;;;5.42;100.00;94792.69;5088990;28;20016;-64
2023/11/10 04:02:54;;;;;;;7.22;6.53;;;;;;;5.40;100.00;94794.59;5086493;28;20027;-64
2023/11/10 04:05:20;;;;;;;5.75;5.25;;;;;;;5.39;100.00;94791.16;5093341;28;20083;-64
2023/11/10 04:07:45;;;;;;;6.00;5.40;;;;;;;5.42;100.00;94809.19;5087361;28;20027;-64
2023/11/10 04:10:11;;;;;;;4.03;3.17;;;;;;;5.55;100.00;94813.34;5087320;28;20105;-64
2023/11/10 04:12:37;;;;;;;2.80;2.60;;;;;;;5.52;100.00;94809.19;5084414;28;20532;-64
2023/11/10 04:15:03;;;;;;;2.70;2.50;;;;;;;5.58;100.00;94818.28;5084600;28;20009;-64
2023/11/10 04:17:29;;;;;;;3.58;2.97;;;;;;;5.68;100.00;94808.72;5089639;28;20032;-64
2023/11/10 04:19:54;;;;;;;2.10;2.00;;;;;;;5.71;100.00;94820.66;5077199;28;20573;-64
2023/11/10 04:22:19;;;;;;;2.38;2.22;;;;;;;5.66;100.00;94841.97;5086290;28;20055;-64
2023/11/10 04:24:45;;;;;;;4.22;2.55;;;;;;;5.65;100.00;94870.81;5090728;28;20120;-64
2023/11/10 04:27:12;;;;;;;2.78;2.58;;;;;;;5.62;100.00;94874.50;5087465;28;20036;-64
2023/11/10 04:29:37;;;;;;;2.90;2.65;;;;;;;5.58;100.00;94878.34;5085279;28;20028;-64
2023/11/10 04:32:03;;;;;;;3.90;3.42;;;;;;;5.57;100.00;94880.16;5079945;28;20146;-64
2023/11/10 04:34:29;;;;;;;6.32;5.82;;;;;;;5.55;100.00;94873.41;5079290;28;20024;-64
2023/11/10 04:36:54;;;;;;;9.30;7.60;;;;;;;5.52;100.00;94881.50;5085899;28;20024;-64
2023/11/10 04:39:20;;;;;;;8.23;7.43;;;;;;;5.43;100.00;94889.16;5086147;28;20035;-64
2023/11/10 04:41:46;;;;;;;8.23;7.50;;;;;;;5.36;100.00;94889.81;5081608;28;20381;-64
2023/11/10 04:44:12;;;;;;;9.43;8.63;;;;;;;5.40;100.00;94894.63;5081309;28;20016;-64
2023/11/10 04:46:44;;;;;;;12.13;10.88;;;;;;;5.34;100.00;94892.53;5084317;28;20024;-64
2023/11/10 04:49:13;;;;;;;17.17;15.57;;;;;;;5.16;100.00;94893.13;5082245;28;20021;-64
2023/11/10 04:51:38;;;;;;;26.50;23.85;;;;;;;5.05;100.00;94892.34;5085765;28;20023;-64
2023/11/10 04:54:04;;;;;;;25.85;23.45;;;;;;;4.96;100.00;94905.22;5088384;28;20036;-64
2023/11/10 04:56:33;;;;;;;18.25;16.40;;;;;;;4.90;100.00;94894.47;5087790;28;20085;-64
2023/11/10 04:58:58;;;;;;;19.90;17.90;;;;;;;4.87;100.00;94898.97;5080496;28;20427;-64
2023/11/10 05:01:25;;;;;;;29.65;26.95;;;;;;;4.81;100.00;94894.28;5084709;28;20016;-64
2023/11/10 05:03:52;;;;;;;20.50;18.42;;;;;;;4.90;100.00;94882.25;5079953;28;20020;-64
2023/11/10 05:06:28;;;;;;;21.00;18.80;;;;;;;4.84;100.00;94883.59;5085944;28;20028;-64
2023/11/10 05:08:53;;;;;;;27.13;24.45;;;;;;;4.77;100.00;94890.28;5090690;28;20032;-64
2023/11/10 05:11:18;;;;;;;29.40;26.60;;;;;;;4.71;100.00;94893.34;5087373;28;20099;-64
2023/11/10 05:13:44;;;;;;;30.88;28.10;;;;;;;4.67;100.00;94884.13;5089394;28;20020;-64
2023/11/10 05:16:11;;;;;;;29.23;26.63;;;;;;;4.86;100.00;94879.06;5086629;28;20350;-64
2023/11/10 05:18:37;;;;;;;26.65;24.17;;;;;;;4.81;100.00;94877.78;5088892;28;20165;-64
2023/11/10 05:21:02;;;;;;;31.08;28.42;;;;;;;4.78;100.00;94876.28;5088340;28;20057;-64
2023/11/10 05:23:28;;;;;;;27.50;25.13;;;;;;;4.77;100.00;94873.78;5088490;28;20016;-64
2023/11/10 05:25:53;;;;;;;29.23;26.52;;;;;;;4.72;100.00;94877.59;5077306;28;20043;-64
2023/11/10 05:28:19;;;;;;;27.35;24.98;;;;;;;4.72;100.00;94889.78;5080427;28;20020;-64
2023/11/10 05:30:44;;;;;;;18.58;16.65;;;;;;;4.88;100.00;94878.94;5082221;28;20103;-64
2023/11/10 05:33:09;;;;;;;27.65;25.25;;;;;;;4.73;100.00;94873.19;5088093;28;20020;-64
2023/11/10 05:35:35;;;;;;;21.52;19.23;;;;;;;4.72;100.00;94881.97;5078255;28;20062;-64
2023/11/10 05:38:00;;;;;;;16.48;14.98;;;;;;;4.74;100.00;94880.06;5085618;28;20012;-64
2023/11/10 05:40:27;;;;;;;15.90;14.40;;;;;;;4.76;100.00;94885.16;5095239;28;20024;-64
2023/11/10 05:42:53;;;;;;;24.13;22.02;;;;;;;4.80;100.00;94873.53;5086163;28;20043;-64
2023/11/10 05:45:18;;;;;;;18.08;16.45;;;;;;;4.81;100.00;94873.41;5079343;28;20025;-64
2023/11/10 05:47:43;;;;;;;19.88;17.98;;;;;;;4.83;100.00;94878.47;5079859;28;20025;-63
2023/11/10 05:50:09;;;;;;;27.95;25.45;;;;;;;4.85;100.00;94873.97;5083461;28;20469;-64
2023/11/10 05:52:35;;;;;;;20.70;18.52;;;;;;;4.86;100.00;94880.84;5081578;28;20020;-64
2023/11/10 05:55:01;;;;;;;18.23;16.35;;;;;;;4.89;100.00;94878.00;5085759;28;20025;-64
2023/11/10 05:57:26;;;;;;;22.17;20.35;;;;;;;4.93;100.00;94886.38;5081993;28;20393;-64
2023/11/10 05:59:51;;;;;;;17.90;16.15;;;;;;;4.95;100.00;94890.53;5086600;28;20418;-64
2023/11/10 06:02:17;;;;;;;21.40;19.63;;;;;;;4.99;100.00;94891.91;5078325;28;20105;-64
2023/11/10 06:04:44;;;;;;;16.45;14.90;;;;;;;5.01;100.00;94894.41;5087469;28;20442;-64
2023/11/10 06:07:11;;;;;;;15.93;13.60;;;;;;;5.02;100.00;94902.09;5084009;28;20032;-64
2023/11/10 06:09:37;;;;;;;14.75;13.35;;;;;;;5.04;100.00;94896.75;5084173;28;20027;-64
2023/11/10 06:12:04;;;;;;;14.25;12.15;;;;;;;5.05;100.00;94892.34;5091446;28;20020;-64
2023/11/10 06:14:30;;;;;;;16.30;14.85;;;;;;;5.07;100.00;94899.13;5089259;28;20020;-64
2023/11/10 06:16:55;;;;;;;13.77;11.27;;;;;;;5.13;100.00;94893.38;5082772;28;20050;-64
2023/11/10 06:19:21;;;;;;;7.85;7.25;;;;;;;5.37;100.00;94894.88;5087880;28;20025;-65
2023/11/10 06:21:47;;;;;;;1.80;1.70;;;;;;;5.96;100.00;94889.06;5090904;28;20032;-64
2023/11/10 06:24:13;;;;;;;2.08;1.98;;;;;;;6.10;100.00;94893.16;5068846;28;20174;-65
2023/11/10 06:26:38;;;;;;;1.25;1.23;;;;;;;6.28;100.00;94904.56;5087738;28;20055;-65
2023/11/10 06:29:05;;;;;;;0.85;0.85;;;;;;;6.65;100.00;94925.81;5084344;28;20027;-64
2023/11/10 06:31:30;;;;;;;1.50;1.40;;;;;;;6.67;100.00;94942.22;5079099;28;20518;-65
2023/11/10 06:33:55;;;;;;;2.85;1.42;;;;;;;6.67;100.00;94950.06;5075693;28;20052;-65
2023/11/10 06:36:21;;;;;;;1.92;1.27;;;;;;;6.60;100.00;94960.22;5084853;28;20082;-64
2023/11/10 06:38:47;;;;;;;1.65;1.45;;;;;;;6.64;100.00;94960.81;5076613;28;20785;-64
2023/11/10 06:41:14;;;;;;;1.67;1.42;;;;;;;6.82;100.00;94960.94;5087050;28;20024;-64
2023/11/10 06:43:40;;;;;;;1.40;1.40;;;;;;;6.58;100.00;94952.53;5078334;28;20489;-64
2023/11/10 06:46:06;;;;;;;2.00;1.90;;;;;;;6.26;100.00;94950.94;5087361;28;20017;-65
2023/11/10 06:48:31;;;;;;;2.22;1.80;;;;;;;6.04;100.00;94959.81;5095927;28;20028;-64
2023/11/10 06:50:57;;;;;;;3.80;3.60;;;;;;;5.92;100.00;94961.69;5079683;28;20035;-64
2023/11/10 06:53:22;;;;;;;1.55;1.50;;;;;;;5.86;100.00;94964.81;5084190;28;20051;-64
2023/11/10 06:55:49;;;;;;;1.70;1.60;;;;;;;5.73;100.00;94971.06;5079961;28;20365;-63
2023/11/10 06:58:15;;;;;;;2.80;1.98;;;;;;;5.68;100.00;94975.03;5078057;28;20025;-64
2023/11/10 07:00:40;;;;;;;2.33;2.22;;;;;;;5.62;100.00;94965.09;5076858;28;20572;-64
2023/11/10 07:03:12;;;;;;;1.67;1.58;;;;;;;5.63;100.00;94974.59;5083324;28;20070;-64
2023/11/10 07:05:38;;;;;;;8.40;7.70;;;;;;;5.56;100.00;94975.13;5084561;28;20047;-65
2023/11/10 07:08:09;;;;;;;4.85;4.05;;;;;;;5.53;100.00;94971.91;5078637;28;20069;-64
2023/11/10 07:10:41;;;;;;;5.90;5.50;;;;;;;5.61;100.00;94971.28;5080404;28;20336;-64
2023/11/10 07:13:07;;;;;;;4.47;4.15;;;;;;;5.54;100.00;94973.56;5084356;28;20028;-64
2023/11/10 07:15:33;;;;;;;5.70;5.20;;;;;;;5.52;100.00;94985.94;5085215;28;20031;-64
2023/11/10 07:18:00;;;;;;;6.65;6.00;;;;;;;5.58;100.00;94988.03;5089190;27;20032;-64
2023/11/10 07:20:26;;;;;;;11.50;10.60;;;;;;;5.81;100.00;94998.31;5087481;28;20063;-63
2023/11/10 07:22:52;;;;;;;8.88;8.07;;;;;;;5.62;100.00;94997.25;5091667;28;20515;-63
2023/11/10 07:25:18;;;;;;;7.47;6.88;;;;;;;5.58;100.00;95001.91;5095675;28;20035;-64
2023/11/10 07:27:43;;;;;;;4.47;4.18;;;;;;;5.61;100.00;94995.59;5091429;28;20024;-64
2023/11/10 07:30:09;;;;;;;5.57;5.18;;;;;;;5.59;100.00;94997.50;5082772;28;20039;-64
2023/11/10 07:32:35;;;;;;;13.25;7.80;;;;;;;5.53;100.00;94983.22;5089588;28;20091;-64
2023/11/10 07:35:03;;;;;;;10.45;7.30;;;;;;;5.52;100.00;94980.72;5084211;28;20079;-64
2023/11/10 07:37:34;;;;;;;8.75;6.35;;;;;;;5.54;100.00;94978.78;5081408;28;20032;-64
2023/11/10 07:40:01;;;;;;;6.72;6.10;;;;;;;5.56;100.00;94976.88;5081303;28;20825;-64
2023/11/10 07:42:26;;;;;;;6.57;5.93;;;;;;;5.57;100.00;94984.59;5083864;28;20033;-64
2023/11/10 07:44:51;;;;;;;6.38;5.78;;;;;;;5.58;100.00;94985.41;5089610;28;20533;-64
2023/11/10 07:47:17;;;;;;;9.85;8.90;;;;;;;5.60;100.00;94988.72;5086707;28;20020;-64
2023/11/10 07:49:42;;;;;;;10.38;9.48;;;;;;;5.61;100.00;94979.13;5087572;28;20044;-64
2023/11/10 07:52:09;;;;;;;15.82;14.32;;;;;;;5.63;100.00;94982.44;5079453;28;20027;-64
2023/11/10 07:54:34;;;;;;;15.88;11.65;;;;;;;5.63;100.00;94972.78;5084974;28;20020;-64
2023/11/10 07:57:00;;;;;;;10.55;9.65;;;;;;;5.64;100.00;94969.25;5090975;28;20027;-64
2023/11/10 07:59:26;;;;;;;12.40;5.20;;;;;;;5.67;100.00;94958.53;5078774;28;20114;-64
2023/11/10 08:01:52;;;;;;;6.45;5.82;;;;;;;5.74;100.00;94962.28;5087201;28;20025;-63
2023/11/10 08:04:17;;;;;;;11.13;10.20;;;;;;;5.81;100.00;94959.13;5089108;28;20134;-64
2023/11/10 08:06:43;;;;;;;7.18;6.60;;;;;;;5.93;100.00;94973.78;5091875;28;20077;-63
2023/11/10 08:09:11;;;;;;;22.58;20.88;;;;;;;6.07;100.00;94969.16;5083130;28;20127;-64
2023/11/10 08:11:37;;;;;;;13.50;12.50;;;;;;;6.04;100.00;94970.28;5084158;28;20553;-64
2023/11/10 08:14:03;;;;;;;12.90;11.60;;;;;;;6.08;100.00;94960.38;5082755;28;20016;-64
2023/11/10 08:16:29;;;;;;;11.43;10.52;;;;;;;6.10;100.00;94954.06;5089279;28;20024;-64
2023/11/10 08:18:55;;;;;;;10.70;9.60;;;;;;;6.16;100.00;94960.56;5085343;28;20397;-64
2023/11/10 08:21:20;;;;;;;10.80;9.90;;;;;;;6.23;100.00;94969.50;5096142;28;20024;-64
2023/11/10 08:23:46;;;;;;;11.90;11.02;;;;;;;6.25;100.00;94959.75;5081783;28;20036;-64
2023/11/10 08:26:13;;;;;;;11.43;10.63;;;;;;;6.33;100.00;94955.66;5083881;28;20035;-64
2023/11/10 08:28:38;;;;;;;13.75;12.65;;;;;;;6.34;100.00;94952.88;5087594;28;20029;-64
2023/11/10 08:31:03;;;;;;;12.43;11.35;;;;;;;6.40;100.00;94967.22;5085416;28;20527;-64
2023/11/10 08:33:29;;;;;;;11.80;10.90;;;;;;;6.44;100.00;94969.44;5078993;28;20031;-64
2023/11/10 08:35:54;;;;;;;11.02;10.02;;;;;;;6.49;100.00;94974.25;5087592;28;20025;-64
2023/11/10 08:38:20;;;;;;;10.48;9.57;;;;;;;6.54;100.00;94968.63;5090320;28;20035;-64
2023/11/10 08:40:46;;;;;;;8.25;7.57;;;;;;;6.63;100.00;94962.59;5085974;28;20092;-64
2023/11/10 08:43:12;;;;;;;7.28;6.57;;;;;;;6.71;100.00;94964.50;5088618;28;20054;-64
2023/11/10 08:45:37;;;;;;;6.68;6.07;;;;;;;6.81;100.00;94957.53;5082751;28;20028;-64
2023/11/10 08:48:04;;;;;;;6.15;5.65;;;;;;;6.88;100.00;94955.19;5082095;28;20078;-64
2023/11/10 08:50:29;;;;;;;5.20;4.82;;;;;;;7.04;100.00;94954.63;5085440;28;20028;-64
2023/11/10 08:52:55;;;;;;;6.93;6.22;;;;;;;7.17;100.00;94949.91;5085899;28;20020;-64
2023/11/10 08:55:23;;;;;;;3.60;3.30;;;;;;;7.34;100.00;94952.81;5091776;28;20031;-64
2023/11/10 08:57:49;;;;;;;5.88;5.18;;;;;;;7.60;100.00;94953.03;5088803;28;20020;-64
2023/11/10 09:00:17;;;;;;;6.78;6.15;;;;;;;7.43;100.00;94956.38;5087967;28;21182;-64
2023/11/10 09:02:44;;;;;;;9.85;7.05;;;;;;;7.29;100.00;94960.25;5088315;28;20594;-64
2023/11/10 09:05:10;;;;;;;10.50;9.40;;;;;;;7.16;100.00;94971.84;5087356;28;20062;-64
2023/11/10 09:07:40;;;;;;;7.25;6.53;;;;;;;7.09;100.00;94981.22;5086602;28;20035;-64
2023/11/10 09:10:06;;;;;;;6.93;6.30;;;;;;;7.05;100.00;94972.00;5087078;28;20052;-64
2023/11/10 09:12:35;;;;;;;5.78;5.38;;;;;;;6.99;100.00;94977.78;5086242;28;20396;-64
2023/11/10 09:15:00;;;;;;;5.43;5.05;;;;;;;7.01;100.00;94984.50;5078058;28;20535;-64
2023/11/10 09:17:26;;;;;;;7.03;5.00;;;;;;;6.95;100.00;94984.22;5089566;28;20106;-64
2023/11/10 09:19:52;;;;;;;4.50;4.13;;;;;;;6.93;100.00;94991.38;5089342;28;20047;-63
2023/11/10 09:22:18;;;;;;;4.10;3.80;;;;;;;6.98;100.00;94990.03;5091621;28;20028;-64
2023/11/10 09:24:45;;;;;;;10.77;9.77;;;;;;;7.00;100.00;95003.00;5087557;28;20069;-64
2023/11/10 09:27:10;;;;;;;9.20;8.38;;;;;;;6.91;100.00;95004.63;5084418;28;20052;-64
2023/11/10 09:29:35;;;;;;;10.68;9.73;;;;;;;6.75;100.00;95005.16;5085826;28;20115;-64
2023/11/10 09:32:01;;;;;;;11.10;10.02;;;;;;;6.77;100.00;95008.47;5086156;28;20078;-64
2023/11/10 09:34:27;;;;;;;11.98;10.77;;;;;;;6.66;100.00;95012.03;5087493;28;20052;-64
2023/11/10 09:36:56;;;;;;;12.88;11.75;;;;;;;6.60;100.00;95012.53;5080329;28;20025;-64
2023/11/10 09:39:21;;;;;;;10.52;9.63;;;;;;;6.61;100.00;95016.81;5080214;28;20447;-64
2023/11/10 09:41:49;;;;;;;13.38;12.18;;;;;;;6.69;100.00;95016.97;5085897;28;20027;-64
2023/11/10 09:44:14;;;;;;;14.55;13.25;;;;;;;6.86;100.00;95030.38;5086814;28;20036;-64
2023/11/10 09:46:43;;;;;;;20.85;17.20;;;;;;;7.05;100.00;95021.72;5071823;28;20039;-64
2023/11/10 09:49:11;;;;;;;20.52;18.05;;;;;;;7.21;100.00;95041.31;5079636;28;20048;-64
2023/11/10 09:51:39;;;;;;;15.98;14.57;;;;;;;7.27;100.00;95041.56;5080645;28;20027;-64
2023/11/10 09:54:05;;;;;;;11.38;10.27;;;;;;;7.39;100.00;95028.34;5080543;28;20109;-64
2023/11/10 09:56:31;;;;;;;1.60;1.50;;;;;;;7.83;100.00;95014.75;5083353;28;20028;-64
2023/11/10 09:58:59;;;;;;;1.75;1.65;;;;;;;7.95;100.00;95021.50;5087664;28;20020;-64
2023/11/10 10:01:25;;;;;;;2.00;1.80;;;;;;;8.06;100.00;94993.44;5080374;28;20032;-64
2023/11/10 10:03:51;;;;;;;1.80;1.70;;;;;;;8.09;100.00;95004.47;5085605;28;20027;-64
2023/11/10 10:06:17;;;;;;;2.20;2.08;;;;;;;8.31;100.00;95026.91;5086374;28;20074;-64
2023/11/10 10:08:43;;;;;;;2.38;1.88;;;;;;;8.08;100.00;95052.63;5092798;28;20036;-64
2023/11/10 10:11:09;;;;;;;3.15;2.97;;;;;;;8.06;100.00;95079.94;5087592;28;20057;-64
2023/11/10 10:13:34;;;;;;;3.28;3.08;;;;;;;7.85;100.00;95099.31;5084838;28;20475;-64
2023/11/10 10:16:10;;;;;;;1.40;1.40;;;;;;;8.14;100.00;95116.81;5078802;28;20022;-64
2023/11/10 10:18:41;;;;;;;1.10;1.10;;;;;;;8.23;100.00;95151.84;5085522;28;20098;-64
2023/11/10 10:21:08;;;;;;;1.30;1.30;;;;;;;8.46;100.00;95168.91;5091411;28;20024;-64
2023/11/10 10:23:35;;;;;;;1.48;1.38;;;;;;;8.38;100.00;95176.63;5084073;28;20122;-65
2023/11/10 10:26:04;;;;;;;1.25;1.23;;;;;;;8.56;100.00;95186.44;5076810;28;20051;-64
2023/11/10 10:28:29;;;;;;;1.50;1.40;;;;;;;8.37;100.00;95185.47;5092350;28;20046;-64
2023/11/10 10:30:55;;;;;;;3.10;2.90;;;;;;;8.53;100.00;95202.47;5087727;28;20029;-64
2023/11/10 10:33:20;;;;;;;2.30;2.10;;;;;;;8.75;100.00;95188.22;5086586;28;20032;-65
2023/11/10 10:35:46;;;;;;;2.38;2.17;;;;;;;8.74;100.00;95192.63;5080986;28;20040;-64
2023/11/10 10:38:14;;;;;;;2.83;2.10;;;;;;;8.85;100.00;95193.44;5087679;28;20024;-64
2023/11/10 10:40:40;;;;;;;3.20;1.17;;;;;;;9.14;100.00;95189.84;5084302;28;20027;-64
2023/11/10 10:43:07;;;;;;;1.55;1.20;;;;;;;9.29;100.00;95182.31;5081014;28;20099;-64
2023/11/10 10:45:33;;;;;;;1.20;1.13;;;;;;;9.48;100.00;95172.66;5083293;28;20036;-64
2023/11/10 10:47:59;;;;;;;2.58;2.20;;;;;;;9.51;100.00;95186.34;5086681;28;20385;-64
2023/11/10 10:50:26;;;;;;;2.40;1.77;;;;;;;9.58;100.00;95186.56;5088099;28;20045;-64
2023/11/10 10:52:55;;;;;;;2.03;1.92;;;;;;;9.48;100.00;95202.38;5087113;28;20017;-64
2023/11/10 10:55:22;;;;;;;2.10;1.63;;;;;;;9.28;100.00;95180.66;5085430;28;20628;-64
2023/11/10 10:57:48;;;;;;;1.63;1.55;;;;;;;8.90;100.00;95196.44;5091038;28;20024;-64
2023/11/10 11:00:16;;;;;;;1.60;1.50;;;;;;;8.78;100.00;95208.91;5090388;28;20485;-64
2023/11/10 11:02:45;;;;;;;1.55;1.45;;;;;;;8.49;100.00;95198.44;5085304;28;20074;-64
2023/11/10 11:05:23;;;;;;;1.45;1.40;;;;;;;8.41;100.00;95191.28;5089164;28;20567;-63
2023/11/10 11:08:04;;;;;;;1.60;1.50;;;;;;;8.43;100.00;95190.19;5083552;28;20488;-64
2023/11/10 11:11:03;;;;;;;1.48;1.40;;;;;;;8.54;100.00;95197.09;5084941;28;20080;-64
2023/11/10 11:13:50;;;;;;;2.78;2.40;;;;;;;8.63;100.00;95190.19;5092317;28;20107;-64
2023/11/10 11:16:50;;;;;;;2.67;2.58;;;;;;;8.59;100.00;95183.53;5081256;28;20044;-64
2023/11/10 11:19:18;;;;;;;2.58;2.28;;;;;;;8.38;100.00;95175.84;5087276;28;20119;-64
2023/11/10 11:21:44;;;;;;;1.90;1.80;;;;;;;8.24;100.00;95156.94;5090636;28;20164;-64